createdAt,value
2022-10-19T00:01:31.814Z,1.40
2022-10-19T00:04:03.578Z,1.13
2022-10-19T00:06:36.118Z,1.13
2022-10-19T00:09:16.475Z,1.10
2022-10-19T00:11:57.244Z,0.82
2022-10-19T00:14:33.786Z,1.42
2022-10-19T00:17:00.774Z,1.70
2022-10-19T00:19:29.087Z,1.42
2022-10-19T00:21:56.089Z,1.10
2022-10-19T00:24:23.238Z,0.90
2022-10-19T00:26:51.616Z,1.15
2022-10-19T00:29:20.343Z,1.10
2022-10-19T00:31:50.028Z,1.20
2022-10-19T00:34:17.375Z,1.02
2022-10-19T00:36:47.105Z,1.00
2022-10-19T00:39:18.064Z,1.02
2022-10-19T00:41:46.931Z,0.90
2022-10-19T00:44:31.634Z,1.00
2022-10-19T00:47:03.785Z,0.80
2022-10-19T00:49:35.382Z,1.08
2022-10-19T00:52:05.971Z,1.15
2022-10-19T00:54:44.532Z,0.95
2022-10-19T00:57:16.656Z,1.40
2022-10-19T00:59:45.792Z,0.90
2022-10-19T01:02:14.125Z,1.02
2022-10-19T01:04:56.852Z,1.40
2022-10-19T01:07:26.823Z,1.10
2022-10-19T01:09:57.013Z,1.77
2022-10-19T01:12:41.471Z,1.35
2022-10-19T01:15:23.307Z,0.95
2022-10-19T01:18:07.660Z,1.00
2022-10-19T01:20:52.746Z,0.82
2022-10-19T01:23:42.195Z,1.23
2022-10-19T01:26:20.347Z,1.65
2022-10-19T01:29:26.636Z,1.30
2022-10-19T01:32:06.734Z,0.95
2022-10-19T01:34:51.753Z,0.95
2022-10-19T01:37:38.977Z,1.13
2022-10-19T01:40:48.477Z,0.90
2022-10-19T01:43:26.573Z,0.77
2022-10-19T01:46:21.698Z,1.33
2022-10-19T01:48:58.894Z,1.38
2022-10-19T01:51:34.465Z,0.95
2022-10-19T01:54:04.755Z,1.50
2022-10-19T01:56:34.282Z,1.00
2022-10-19T01:59:08.062Z,1.50
2022-10-19T02:01:47.854Z,1.88
2022-10-19T02:04:27.625Z,1.17
2022-10-19T02:06:55.716Z,0.77
2022-10-19T02:09:23.313Z,0.80
2022-10-19T02:11:56.991Z,0.90
2022-10-19T02:14:31.086Z,1.20
2022-10-19T02:17:06.212Z,1.00
2022-10-19T02:19:33.802Z,1.05
2022-10-19T02:22:03.453Z,1.05
2022-10-19T02:24:30.238Z,1.63
2022-10-19T02:27:15.687Z,1.08
2022-10-19T02:30:01.240Z,1.25
2022-10-19T02:32:28.301Z,0.70
2022-10-19T02:34:55.225Z,1.00
2022-10-19T02:37:25.556Z,1.10
2022-10-19T02:39:52.550Z,0.98
2022-10-19T02:42:32.774Z,1.55
2022-10-19T02:45:10.053Z,0.95
2022-10-19T02:47:45.093Z,1.33
2022-10-19T02:50:13.784Z,0.85
2022-10-19T02:52:41.595Z,0.98
2022-10-19T02:55:09.227Z,1.08
2022-10-19T02:57:36.439Z,1.00
2022-10-19T03:00:05.454Z,1.40
2022-10-19T03:02:32.162Z,1.17
2022-10-19T03:04:58.856Z,0.60
2022-10-19T03:07:25.587Z,1.08
2022-10-19T03:09:52.573Z,1.40
2022-10-19T03:12:19.406Z,1.20
2022-10-19T03:14:46.107Z,1.02
2022-10-19T03:17:13.003Z,1.35
2022-10-19T03:19:39.738Z,1.48
2022-10-19T03:22:06.765Z,1.00
2022-10-19T03:24:33.682Z,0.93
2022-10-19T03:27:00.406Z,1.48
2022-10-19T03:29:27.023Z,1.60
2022-10-19T03:31:53.675Z,1.05
2022-10-19T03:34:20.390Z,1.15
2022-10-19T03:36:47.395Z,1.02
2022-10-19T03:39:16.089Z,1.20
2022-10-19T03:41:43.364Z,1.33
2022-10-19T03:44:10.772Z,1.40
2022-10-19T03:46:38.246Z,1.23
2022-10-19T03:49:05.848Z,1.27
2022-10-19T03:51:33.839Z,1.45
2022-10-19T03:54:02.839Z,1.05
2022-10-19T03:56:30.921Z,1.15
2022-10-19T03:58:59.300Z,1.30
2022-10-19T04:01:32.230Z,1.80
2022-10-19T04:04:03.737Z,2.13
2022-10-19T04:06:36.353Z,0.93
2022-10-19T04:09:05.130Z,1.27
2022-10-19T04:11:33.842Z,1.13
2022-10-19T04:14:01.603Z,1.05
2022-10-19T04:16:29.984Z,1.05
2022-10-19T04:18:56.883Z,1.00
2022-10-19T04:21:32.353Z,1.23
2022-10-19T04:24:04.815Z,1.08
2022-10-19T04:26:33.301Z,1.17
2022-10-19T04:29:01.578Z,1.38
2022-10-19T04:31:29.128Z,1.30
2022-10-19T04:33:56.664Z,0.90
2022-10-19T04:36:23.890Z,1.20
2022-10-19T04:38:50.623Z,1.08
2022-10-19T04:41:19.982Z,1.58
2022-10-19T04:43:47.812Z,0.73
2022-10-19T04:46:17.719Z,0.80
2022-10-19T04:48:45.143Z,1.50
2022-10-19T04:51:12.670Z,0.93
2022-10-19T04:53:40.675Z,0.90
2022-10-19T04:56:09.280Z,1.52
2022-10-19T04:58:36.013Z,1.60
2022-10-19T05:01:10.190Z,1.35
2022-10-19T05:03:37.116Z,0.70
2022-10-19T05:06:04.941Z,0.90
2022-10-19T05:08:32.098Z,1.00
2022-10-19T05:11:07.194Z,1.25
2022-10-19T05:13:34.777Z,1.05
2022-10-19T05:16:04.454Z,0.90
2022-10-19T05:18:31.826Z,1.08
2022-10-19T05:21:06.754Z,0.90
2022-10-19T05:23:34.584Z,0.85
2022-10-19T05:26:03.507Z,0.80
2022-10-19T05:28:30.848Z,0.80
2022-10-19T05:31:07.792Z,0.88
2022-10-19T05:33:34.997Z,1.10
2022-10-19T05:36:11.971Z,1.15
2022-10-19T05:38:38.630Z,1.45
2022-10-19T05:41:05.742Z,1.13
2022-10-19T05:43:32.415Z,1.23
2022-10-19T05:46:04.078Z,0.73
2022-10-19T05:48:33.699Z,0.88
2022-10-19T05:51:02.081Z,1.02
2022-10-19T05:53:29.980Z,1.08
2022-10-19T05:55:57.257Z,1.08
2022-10-19T05:58:24.345Z,1.08
2022-10-19T06:00:59.083Z,0.77
2022-10-19T06:03:26.341Z,1.00
2022-10-19T06:05:54.026Z,1.42
2022-10-19T06:08:22.018Z,0.93
2022-10-19T06:10:49.874Z,1.35
2022-10-19T06:13:18.314Z,1.70
2022-10-19T06:15:45.113Z,1.08
2022-10-19T06:18:12.978Z,1.10
2022-10-19T06:20:43.004Z,1.10
2022-10-19T06:23:09.726Z,1.10
2022-10-19T06:25:37.997Z,0.68
2022-10-19T06:28:05.801Z,1.08
2022-10-19T06:30:32.576Z,1.08
2022-10-19T06:32:59.697Z,1.00
2022-10-19T06:35:26.442Z,1.67
2022-10-19T06:37:56.496Z,0.90
2022-10-19T06:40:23.957Z,0.90
2022-10-19T06:42:51.058Z,0.60
2022-10-19T06:45:17.878Z,1.00
2022-10-19T06:47:44.616Z,0.65
2022-10-19T06:50:11.414Z,1.10
2022-10-19T06:52:38.183Z,0.98
2022-10-19T06:55:05.342Z,0.98
2022-10-19T06:57:32.289Z,1.38
2022-10-19T06:59:59.122Z,1.40
2022-10-19T07:02:25.920Z,1.40
2022-10-19T07:04:52.498Z,1.38
2022-10-19T07:07:19.230Z,1.10
2022-10-19T07:09:47.559Z,1.25
2022-10-19T07:12:14.531Z,1.20
2022-10-19T07:14:41.147Z,0.95
2022-10-19T07:17:08.208Z,1.27
2022-10-19T07:19:35.203Z,1.10
2022-10-19T07:22:01.994Z,1.25
2022-10-19T07:24:28.589Z,1.42
2022-10-19T07:26:55.887Z,1.52
2022-10-19T07:29:23.147Z,0.73
2022-10-19T07:31:49.799Z,1.13
2022-10-19T07:34:16.566Z,1.13
2022-10-19T07:36:47.879Z,0.85
2022-10-19T07:39:17.128Z,1.05
2022-10-19T07:41:44.254Z,0.90
2022-10-19T07:44:14.824Z,1.00
2022-10-19T07:46:43.111Z,1.10
2022-10-19T07:49:14.047Z,1.67
2022-10-19T07:51:41.058Z,1.42
2022-10-19T07:54:07.958Z,1.23
2022-10-19T07:56:34.853Z,1.30
2022-10-19T07:59:02.777Z,0.90
2022-10-19T08:01:36.833Z,1.35
2022-10-19T08:06:50.329Z,1.30
2022-10-19T08:09:39.976Z,0.93
2022-10-19T08:12:05.426Z,0.90
2022-10-19T08:14:32.587Z,1.02
2022-10-19T08:17:00.311Z,1.08
2022-10-19T08:19:27.057Z,0.90
2022-10-19T08:21:53.738Z,0.70
2022-10-19T08:24:21.723Z,0.95
2022-10-19T08:26:51.279Z,0.90
2022-10-19T08:29:20.331Z,1.35
2022-10-19T08:31:48.875Z,0.80
2022-10-19T08:34:16.277Z,0.90
2022-10-19T08:36:43.245Z,0.85
2022-10-19T08:39:12.560Z,0.90
2022-10-19T08:42:03.926Z,0.68
2022-10-19T08:44:42.419Z,1.05
2022-10-19T08:47:31.230Z,0.95
2022-10-19T08:49:58.509Z,0.80
2022-10-19T08:52:34.259Z,0.70
2022-10-19T08:55:05.998Z,0.90
2022-10-19T08:57:46.373Z,0.82
2022-10-19T09:03:37.738Z,1.05
2022-10-19T09:07:12.462Z,0.70
2022-10-19T09:12:21.159Z,0.80
2022-10-19T09:14:54.695Z,0.70
2022-10-19T09:17:21.662Z,0.90
2022-10-19T09:19:52.645Z,0.60
2022-10-19T09:22:35.097Z,0.68
2022-10-19T09:25:11.335Z,0.80
2022-10-19T09:27:47.041Z,0.70
2022-10-19T09:30:24.482Z,0.60
2022-10-19T09:33:00.855Z,1.08
2022-10-19T09:35:33.878Z,0.70
2022-10-19T09:38:01.322Z,1.02
2022-10-19T09:40:31.738Z,0.70
2022-10-19T09:43:00.931Z,0.88
2022-10-19T09:45:59.454Z,0.77
2022-10-19T09:48:52.995Z,0.75
2022-10-19T09:51:20.913Z,0.80
2022-10-19T09:54:00.415Z,0.98
2022-10-19T09:56:45.376Z,0.82
2022-10-19T09:59:25.469Z,0.70
2022-10-19T10:02:18.239Z,0.82
2022-10-19T10:05:20.006Z,0.70
2022-10-19T10:07:50.466Z,1.05
2022-10-19T10:10:32.988Z,0.80
2022-10-19T10:13:07.854Z,0.90
2022-10-19T10:15:57.982Z,0.75
2022-10-19T10:18:36.059Z,0.90
2022-10-19T10:21:11.385Z,1.17
2022-10-19T10:23:38.172Z,1.00
2022-10-19T10:26:15.075Z,1.15
2022-10-19T10:28:49.093Z,0.80
2022-10-19T10:31:19.275Z,0.77
2022-10-19T10:34:10.797Z,1.05
2022-10-19T10:36:54.138Z,0.95
2022-10-19T10:39:20.996Z,1.20
2022-10-19T10:41:48.696Z,0.80
2022-10-19T10:44:23.352Z,0.95
2022-10-19T10:46:55.049Z,1.05
2022-10-19T10:49:28.988Z,0.90
2022-10-19T10:51:59.807Z,1.00
2022-10-19T10:54:31.408Z,1.10
2022-10-19T10:57:16.410Z,0.80
2022-10-19T11:00:03.998Z,1.42
2022-10-19T11:02:57.652Z,1.13
2022-10-19T11:05:27.539Z,1.10
2022-10-19T11:08:26.311Z,0.85
2022-10-19T11:11:08.993Z,0.90
2022-10-19T11:13:48.572Z,0.88
2022-10-19T11:16:23.665Z,1.05
2022-10-19T11:18:54.993Z,1.17
2022-10-19T11:21:30.402Z,0.90
2022-10-19T11:27:08.398Z,0.90
2022-10-19T11:29:57.220Z,1.08
2022-10-19T11:32:53.549Z,0.90
2022-10-19T11:35:45.148Z,1.00
2022-10-19T11:38:23.301Z,1.10
2022-10-19T11:41:27.324Z,0.98
2022-10-19T11:44:05.225Z,1.00
2022-10-19T11:46:46.844Z,1.20
2022-10-19T11:49:56.197Z,0.90
2022-10-19T11:52:46.391Z,0.88
2022-10-19T11:55:54.385Z,0.82
2022-10-19T11:58:33.734Z,1.27
2022-10-19T12:01:24.988Z,0.88
2022-10-19T12:04:11.417Z,1.10
2022-10-19T12:06:58.209Z,0.80
2022-10-19T12:09:47.632Z,0.98
2022-10-19T12:12:30.883Z,1.13
2022-10-19T12:15:35.556Z,0.85
2022-10-19T12:18:12.767Z,0.88
2022-10-19T12:20:46.725Z,0.80
2022-10-19T12:23:35.813Z,0.80
2022-10-19T12:26:05.901Z,0.73
2022-10-19T12:28:38.602Z,0.80
2022-10-19T12:31:06.771Z,0.98
2022-10-19T12:34:00.818Z,0.80
2022-10-19T12:36:45.746Z,0.95
2022-10-19T12:39:24.836Z,0.80
2022-10-19T12:42:27.566Z,1.23
2022-10-19T12:45:02.930Z,0.80
2022-10-19T12:47:29.719Z,0.90
2022-10-19T12:49:59.814Z,0.88
2022-10-19T12:52:41.975Z,0.70
2022-10-19T12:55:28.249Z,0.60
2022-10-19T12:58:06.751Z,0.88
2022-10-19T13:00:37.422Z,0.65
2022-10-19T13:03:13.840Z,0.50
2022-10-19T13:05:40.662Z,1.02
2022-10-19T13:08:10.817Z,0.50
2022-10-19T13:10:40.404Z,0.60
2022-10-19T13:13:45.391Z,0.50
2022-10-19T13:16:30.342Z,0.82
2022-10-19T13:19:00.303Z,0.68
2022-10-19T13:21:48.878Z,0.68
2022-10-19T13:24:24.617Z,0.70
2022-10-19T13:27:03.140Z,1.02
2022-10-19T13:29:39.280Z,0.98
2022-10-19T13:32:30.640Z,1.00
2022-10-19T13:35:35.927Z,0.80
2022-10-19T13:38:18.259Z,0.93
2022-10-19T13:40:47.911Z,0.73
2022-10-19T13:43:37.329Z,1.00
2022-10-19T13:46:07.668Z,0.73
2022-10-19T13:48:46.378Z,0.70
2022-10-19T13:51:31.563Z,0.50
2022-10-19T13:54:22.938Z,0.50
2022-10-19T13:57:21.778Z,0.60
2022-10-19T14:00:09.662Z,0.60
2022-10-19T14:02:56.881Z,0.52
2022-10-19T14:05:23.549Z,0.63
2022-10-19T14:08:00.190Z,0.60
2022-10-19T14:10:32.795Z,0.77
2022-10-19T14:13:00.858Z,0.70
2022-10-19T14:15:33.941Z,0.70
2022-10-19T14:18:03.731Z,0.70
2022-10-19T14:20:35.389Z,0.73
2022-10-19T14:23:19.535Z,0.68
2022-10-19T14:26:13.838Z,0.98
2022-10-19T14:28:43.326Z,0.75
2022-10-19T14:31:17.520Z,0.55
2022-10-19T14:33:51.207Z,0.75
2022-10-19T14:36:28.399Z,0.95
2022-10-19T14:38:56.367Z,0.70
2022-10-19T14:41:29.221Z,0.80
2022-10-19T14:43:57.547Z,0.80
2022-10-19T14:46:31.525Z,0.70
2022-10-19T14:49:03.998Z,0.40
2022-10-19T14:51:41.469Z,0.70
2022-10-19T14:54:28.926Z,0.50
2022-10-19T14:57:03.213Z,0.90
2022-10-19T14:59:38.980Z,0.65
2022-10-19T15:02:24.957Z,0.70
2022-10-19T15:04:54.223Z,0.60
2022-10-19T15:07:40.392Z,0.90
2022-10-19T15:10:18.784Z,1.02
2022-10-19T15:12:45.745Z,0.90
2022-10-19T15:15:25.635Z,0.70
2022-10-19T15:18:00.427Z,0.70
2022-10-19T15:20:49.012Z,0.75
2022-10-19T15:23:44.695Z,0.88
2022-10-19T15:26:28.323Z,0.90
2022-10-19T15:29:07.080Z,0.75
2022-10-19T15:31:33.866Z,0.80
2022-10-19T15:34:02.619Z,0.73
2022-10-19T15:36:31.713Z,0.93
2022-10-19T15:39:06.318Z,1.08
2022-10-19T15:41:45.253Z,0.82
2022-10-19T15:44:42.956Z,1.27
2022-10-19T15:47:21.024Z,1.25
2022-10-19T15:49:55.585Z,1.60
2022-10-19T15:52:34.873Z,1.30
2022-10-19T15:55:02.006Z,1.42
2022-10-19T15:57:33.378Z,1.10
2022-10-19T16:00:12.775Z,1.38
2022-10-19T16:02:39.489Z,1.40
2022-10-19T16:07:40.114Z,1.70
2022-10-19T16:10:08.166Z,1.42
2022-10-19T16:12:34.821Z,1.38
2022-10-19T16:15:01.698Z,1.65
2022-10-19T16:17:28.455Z,1.58
2022-10-19T16:19:55.062Z,1.65
2022-10-19T16:22:21.784Z,1.80
2022-10-19T16:24:48.415Z,1.15
2022-10-19T16:27:16.341Z,1.42
2022-10-19T16:29:44.676Z,1.70
2022-10-19T16:32:20.759Z,1.00
2022-10-19T16:34:47.675Z,1.27
2022-10-19T16:37:14.745Z,1.42
2022-10-19T16:39:41.711Z,1.50
2022-10-19T16:42:08.698Z,1.27
2022-10-19T16:44:35.801Z,1.40
2022-10-19T16:50:03.027Z,2.08
2022-10-19T16:55:15.194Z,1.98
2022-10-19T16:57:41.953Z,1.80
2022-10-19T17:00:11.515Z,2.20
2022-10-19T17:02:41.854Z,3.47
2022-10-19T17:05:11.056Z,2.92
2022-10-19T17:07:37.736Z,3.63
2022-10-19T17:10:07.495Z,3.22
2022-10-19T17:12:34.969Z,2.95
2022-10-19T17:15:23.912Z,3.30
2022-10-19T17:17:48.658Z,2.58
2022-10-19T17:20:15.808Z,3.10
2022-10-19T17:22:42.465Z,2.63
2022-10-19T17:25:27.639Z,2.30
2022-10-19T17:27:54.797Z,2.40
2022-10-19T17:30:21.486Z,2.67
2022-10-19T17:32:48.176Z,2.40
2022-10-19T17:35:14.877Z,2.58
2022-10-19T17:37:41.471Z,2.50
2022-10-19T17:40:08.929Z,2.08
2022-10-19T17:42:36.669Z,2.55
2022-10-19T17:45:03.729Z,2.80
2022-10-19T17:47:30.722Z,2.53
2022-10-19T17:49:57.423Z,2.80
2022-10-19T17:52:27.905Z,2.67
2022-10-19T17:55:12.794Z,5.10
2022-10-19T18:00:31.642Z,3.95
2022-10-19T18:03:04.166Z,3.60
2022-10-19T18:08:49.163Z,3.80
2022-10-19T18:11:24.282Z,4.65
2022-10-19T18:13:53.976Z,4.45
2022-10-19T18:16:30.366Z,4.25
2022-10-19T18:18:59.174Z,4.03
2022-10-19T18:21:31.761Z,4.28
2022-10-19T18:24:00.757Z,5.13
2022-10-19T18:26:33.229Z,4.38
2022-10-19T18:29:02.268Z,4.55
2022-10-19T18:31:32.161Z,5.47
2022-10-19T18:37:05.771Z,5.85
2022-10-19T18:39:32.621Z,6.03
2022-10-19T18:41:59.574Z,5.57
2022-10-19T18:44:27.837Z,5.40
2022-10-19T18:46:56.636Z,5.35
2022-10-19T18:49:24.190Z,4.93
2022-10-19T18:51:55.044Z,5.18
2022-10-19T18:54:28.124Z,5.47
2022-10-19T18:56:55.509Z,5.57
2022-10-19T18:59:22.829Z,5.40
2022-10-19T19:01:49.830Z,5.10
2022-10-19T19:04:16.583Z,4.55
2022-10-19T19:06:43.669Z,4.30
2022-10-19T19:09:12.749Z,5.28
2022-10-19T19:11:41.825Z,5.40
2022-10-19T19:14:17.560Z,5.53
2022-10-19T19:16:45.334Z,5.78
2022-10-19T19:19:15.052Z,4.63
2022-10-19T19:21:44.458Z,5.43
2022-10-19T19:24:15.073Z,4.83
2022-10-19T19:26:46.819Z,4.53
2022-10-19T19:29:20.603Z,4.23
2022-10-19T19:31:50.844Z,4.30
2022-10-19T19:34:25.189Z,5.10
2022-10-19T19:36:51.953Z,3.85
2022-10-19T19:39:20.881Z,4.43
2022-10-19T19:41:49.048Z,3.80
2022-10-19T19:44:16.162Z,4.13
2022-10-19T19:46:43.050Z,5.00
2022-10-19T19:49:09.862Z,4.45
2022-10-19T19:51:36.704Z,4.23
2022-10-19T19:54:05.504Z,4.28
2022-10-19T19:56:32.697Z,4.78
2022-10-19T19:59:00.589Z,4.55
2022-10-19T20:01:27.484Z,4.05
2022-10-19T20:03:54.293Z,4.40
2022-10-19T20:06:25.069Z,4.32
2022-10-19T20:08:53.174Z,4.22
2022-10-19T20:11:19.933Z,4.40
2022-10-19T20:13:46.681Z,4.37
2022-10-19T20:16:20.948Z,3.75
2022-10-19T20:18:52.086Z,3.78
2022-10-19T20:21:23.402Z,3.90
2022-10-19T20:23:51.147Z,3.92
2022-10-19T20:26:23.516Z,3.30
2022-10-19T20:28:51.186Z,3.58
2022-10-19T20:31:19.068Z,3.35
2022-10-19T20:33:48.029Z,3.28
2022-10-19T20:36:23.366Z,3.78
2022-10-19T20:38:55.070Z,3.50
2022-10-19T20:41:23.739Z,3.43
2022-10-19T20:43:53.614Z,3.47
2022-10-19T20:46:23.636Z,3.13
2022-10-19T20:48:51.345Z,3.07
2022-10-19T20:51:31.831Z,3.10
2022-10-19T20:54:00.885Z,2.70
2022-10-19T20:56:33.207Z,2.73
2022-10-19T20:59:05.600Z,3.00
2022-10-19T21:01:34.614Z,2.80
2022-10-19T21:04:04.634Z,2.33
2022-10-19T21:06:34.738Z,2.60
2022-10-19T21:09:01.510Z,2.57
2022-10-19T21:11:33.638Z,2.70
2022-10-19T21:14:02.727Z,2.43
2022-10-19T21:16:30.263Z,2.50
2022-10-19T21:18:57.624Z,2.70
2022-10-19T21:21:29.628Z,2.90
2022-10-19T21:23:59.473Z,2.67
2022-10-19T21:26:27.926Z,2.97
2022-10-19T21:28:55.632Z,2.30
2022-10-19T21:31:24.136Z,2.73
2022-10-19T21:33:51.721Z,2.63
2022-10-19T21:36:19.686Z,2.43
2022-10-19T21:38:46.732Z,3.20
2022-10-19T21:41:20.939Z,2.63
2022-10-19T21:43:51.058Z,2.60
2022-10-19T21:46:19.785Z,2.47
2022-10-19T21:48:46.903Z,2.63
2022-10-19T21:51:36.294Z,2.20
2022-10-19T21:54:07.265Z,2.30
2022-10-19T21:56:34.847Z,2.40
2022-10-19T21:59:01.624Z,2.30
2022-10-19T22:01:29.652Z,2.40
2022-10-19T22:03:57.849Z,2.47
2022-10-19T22:06:29.313Z,2.07
2022-10-19T22:08:57.091Z,1.90
2022-10-19T22:11:24.533Z,2.43
2022-10-19T22:13:58.702Z,2.30
2022-10-19T22:16:26.767Z,2.20
2022-10-19T22:18:54.392Z,2.30
2022-10-19T22:21:26.859Z,2.27
2022-10-19T22:23:56.542Z,2.07
2022-10-19T22:26:31.663Z,1.90
2022-10-19T22:29:00.616Z,2.60
2022-10-19T22:31:29.010Z,2.30
2022-10-19T22:33:55.900Z,2.50
2022-10-19T22:36:22.694Z,2.80
2022-10-19T22:38:49.381Z,2.40
2022-10-19T22:41:16.038Z,2.77
2022-10-19T22:43:42.741Z,2.40
2022-10-19T22:46:09.439Z,2.37
2022-10-19T22:48:36.809Z,2.43
2022-10-19T22:51:03.832Z,2.33
2022-10-19T22:53:30.506Z,2.50
2022-10-19T22:55:57.205Z,2.10
2022-10-19T22:58:23.917Z,2.30
2022-10-19T23:01:06.886Z,2.33
2022-10-19T23:03:34.285Z,2.40
2022-10-19T23:06:01.549Z,2.20
2022-10-19T23:08:28.578Z,2.43
2022-10-19T23:10:55.338Z,2.57
2022-10-19T23:13:22.517Z,2.60
2022-10-19T23:15:50.636Z,2.67
2022-10-19T23:18:18.078Z,2.60
2022-10-19T23:20:57.131Z,2.67
2022-10-19T23:23:24.382Z,2.50
2022-10-19T23:26:13.945Z,2.50
2022-10-19T23:28:43.091Z,2.60
2022-10-19T23:31:24.298Z,2.80
2022-10-19T23:33:52.064Z,2.63
2022-10-19T23:36:22.089Z,3.37
2022-10-19T23:38:50.197Z,3.40
2022-10-19T23:41:17.481Z,3.10
2022-10-19T23:43:44.695Z,3.07
2022-10-19T23:46:11.481Z,2.83
2022-10-19T23:48:38.325Z,3.63
2022-10-19T23:51:06.477Z,3.23
2022-10-19T23:53:38.425Z,3.80
2022-10-19T23:56:19.709Z,3.20
2022-10-19T23:58:46.981Z,3.73
